createdAt,value
2022-07-25T00:01:44.370Z,100839.44
2022-07-25T00:04:12.592Z,100841.28
2022-07-25T00:06:41.740Z,100830.50
2022-07-25T00:09:08.388Z,100823.81
2022-07-25T00:11:35.009Z,100824.13
2022-07-25T00:14:01.605Z,100823.56
2022-07-25T00:16:28.176Z,100830.00
2022-07-25T00:18:54.909Z,100825.84
2022-07-25T00:21:21.462Z,100823.88
2022-07-25T00:23:48.385Z,100817.75
2022-07-25T00:26:14.933Z,100814.78
2022-07-25T00:28:41.598Z,100806.00
2022-07-25T00:31:08.158Z,100807.41
2022-07-25T00:33:34.870Z,100812.00
2022-07-25T00:36:01.571Z,100803.50
2022-07-25T00:38:28.485Z,100807.16
2022-07-25T00:40:55.844Z,100811.31
2022-07-25T00:43:22.816Z,100811.31
2022-07-25T00:45:49.620Z,100812.28
2022-07-25T00:48:16.228Z,100811.63
2022-07-25T00:50:43.115Z,100804.66
2022-07-25T00:53:09.858Z,100816.91
2022-07-25T00:55:36.965Z,100809.94
2022-07-25T00:58:03.834Z,100815.38
2022-07-25T01:00:30.501Z,100814.69
2022-07-25T01:02:57.469Z,100813.19
2022-07-25T01:05:24.214Z,100809.69
2022-07-25T01:07:51.968Z,100805.22
2022-07-25T01:10:18.730Z,100808.00
2022-07-25T01:12:51.899Z,100804.16
2022-07-25T01:15:23.215Z,100800.78
2022-07-25T01:17:50.887Z,100804.56
2022-07-25T01:20:21.763Z,100801.94
2022-07-25T01:22:48.981Z,100799.44
2022-07-25T01:25:16.606Z,100790.50
2022-07-25T01:27:44.136Z,100794.72
2022-07-25T01:30:14.262Z,100794.31
2022-07-25T01:32:41.887Z,100796.41
2022-07-25T01:35:10.549Z,100801.69
2022-07-25T01:37:37.689Z,100792.81
2022-07-25T01:40:05.256Z,100797.56
2022-07-25T01:42:32.664Z,100791.88
2022-07-25T01:44:59.334Z,100786.00
2022-07-25T01:47:26.595Z,100784.06
2022-07-25T01:49:53.096Z,100784.22
2022-07-25T01:52:19.971Z,100782.00
2022-07-25T01:54:46.501Z,100783.97
2022-07-25T01:57:14.465Z,100780.63
2022-07-25T01:59:41.365Z,100782.16
2022-07-25T02:02:09.560Z,100775.47
2022-07-25T02:04:36.971Z,100769.75
2022-07-25T02:07:05.821Z,100768.41
2022-07-25T02:09:32.836Z,100759.75
2022-07-25T02:11:59.844Z,100761.97
2022-07-25T02:14:26.776Z,100764.59
2022-07-25T02:16:53.892Z,100759.56
2022-07-25T02:19:20.643Z,100767.81
2022-07-25T02:21:47.159Z,100765.31
2022-07-25T02:24:14.104Z,100760.44
2022-07-25T02:26:40.667Z,100752.34
2022-07-25T02:29:07.208Z,100752.78
2022-07-25T02:31:33.674Z,100745.00
2022-07-25T02:34:00.646Z,100732.72
2022-07-25T02:36:27.225Z,100739.13
2022-07-25T02:38:53.732Z,100733.84
2022-07-25T02:41:20.620Z,100731.34
2022-07-25T02:43:47.526Z,100728.56
2022-07-25T02:46:14.230Z,100730.06
2022-07-25T02:48:40.794Z,100722.28
2022-07-25T02:51:07.411Z,100717.69
2022-07-25T02:53:56.040Z,100717.41
2022-07-25T02:56:21.162Z,100715.19
2022-07-25T02:58:48.149Z,100713.38
2022-07-25T03:01:15.068Z,100712.94
2022-07-25T03:03:41.822Z,100708.34
2022-07-25T03:06:08.439Z,100715.16
2022-07-25T03:08:35.164Z,100700.69
2022-07-25T03:11:01.726Z,100702.66
2022-07-25T03:13:28.409Z,100704.00
2022-07-25T03:15:56.095Z,100703.19
2022-07-25T03:18:22.719Z,100694.28
2022-07-25T03:20:49.771Z,100692.75
2022-07-25T03:23:16.307Z,100691.78
2022-07-25T03:25:42.820Z,100688.44
2022-07-25T03:28:09.428Z,100687.34
2022-07-25T03:30:35.939Z,100685.69
2022-07-25T03:33:02.547Z,100687.03
2022-07-25T03:35:29.022Z,100678.84
2022-07-25T03:37:55.916Z,100674.09
2022-07-25T03:40:22.605Z,100671.31
2022-07-25T03:42:49.196Z,100663.06
2022-07-25T03:45:16.825Z,100668.22
2022-07-25T03:47:43.461Z,100661.16
2022-07-25T03:50:10.162Z,100655.03
2022-07-25T03:52:38.421Z,100660.31
2022-07-25T03:56:21.421Z,100650.97
2022-07-25T03:58:48.354Z,100661.41
2022-07-25T04:01:14.986Z,100651.97
2022-07-25T04:03:41.553Z,100653.31
2022-07-25T04:06:11.058Z,100658.03
2022-07-25T04:08:37.648Z,100658.75
2022-07-25T04:11:04.300Z,100656.63
2022-07-25T04:13:30.938Z,100653.00
2022-07-25T04:15:57.549Z,100650.25
2022-07-25T04:18:28.008Z,100650.75
2022-07-25T04:20:55.490Z,100639.66
2022-07-25T04:23:22.217Z,100646.03
2022-07-25T04:25:48.824Z,100638.94
2022-07-25T04:28:15.522Z,100638.66
2022-07-25T04:30:45.409Z,100636.28
2022-07-25T04:33:13.343Z,100629.53
2022-07-25T04:35:40.142Z,100636.22
2022-07-25T04:38:11.886Z,100624.47
2022-07-25T04:40:39.528Z,100623.91
2022-07-25T04:43:06.090Z,100628.75
2022-07-25T04:45:33.145Z,100619.00
2022-07-25T04:47:59.792Z,100618.03
2022-07-25T04:50:26.951Z,100614.84
2022-07-25T04:52:53.548Z,100615.28
2022-07-25T04:55:20.582Z,100611.81
2022-07-25T04:57:47.378Z,100599.81
2022-07-25T05:00:15.252Z,100600.81
2022-07-25T05:02:43.545Z,100599.97
2022-07-25T05:05:20.926Z,100594.38
2022-07-25T05:07:48.939Z,100601.22
2022-07-25T05:10:15.870Z,100591.59
2022-07-25T05:12:42.412Z,100594.38
2022-07-25T05:15:09.597Z,100593.25
2022-07-25T05:17:36.234Z,100596.84
2022-07-25T05:20:03.156Z,100590.13
2022-07-25T05:22:30.045Z,100591.47
2022-07-25T05:24:56.611Z,100591.84
2022-07-25T05:27:23.211Z,100586.41
2022-07-25T05:29:49.958Z,100591.56
2022-07-25T05:32:16.512Z,100587.94
2022-07-25T05:34:43.018Z,100589.28
2022-07-25T05:37:09.746Z,100584.69
2022-07-25T05:39:37.489Z,100585.53
2022-07-25T05:42:04.052Z,100581.34
2022-07-25T05:44:31.033Z,100594.22
2022-07-25T05:46:57.627Z,100584.06
2022-07-25T05:49:24.596Z,100584.38
2022-07-25T05:51:51.570Z,100584.50
2022-07-25T05:54:18.122Z,100577.53
2022-07-25T05:56:44.611Z,100578.53
2022-07-25T05:59:11.180Z,100574.22
2022-07-25T06:01:37.974Z,100570.06
2022-07-25T06:04:04.978Z,100578.84
2022-07-25T06:06:32.779Z,100571.72
2022-07-25T06:08:59.823Z,100565.44
2022-07-25T06:11:30.942Z,100564.47
2022-07-25T06:13:57.943Z,100561.38
2022-07-25T06:16:24.902Z,100565.22
2022-07-25T06:18:51.434Z,100558.97
2022-07-25T06:21:17.968Z,100554.84
2022-07-25T06:23:44.565Z,100563.94
2022-07-25T06:26:11.610Z,100566.66
2022-07-25T06:28:39.000Z,100566.38
2022-07-25T06:31:05.742Z,100566.69
2022-07-25T06:33:32.283Z,100572.59
2022-07-25T06:35:58.882Z,100557.09
2022-07-25T06:38:25.639Z,100561.75
2022-07-25T06:40:52.158Z,100563.97
2022-07-25T06:43:19.237Z,100563.47
2022-07-25T06:45:47.580Z,100569.81
2022-07-25T06:48:17.760Z,100570.81
2022-07-25T06:50:45.489Z,100574.03
2022-07-25T06:53:12.291Z,100576.53
2022-07-25T06:55:38.858Z,100570.41
2022-07-25T06:58:05.660Z,100577.38
2022-07-25T07:00:32.272Z,100570.28
2022-07-25T07:03:01.613Z,100565.00
2022-07-25T07:05:33.860Z,100572.97
2022-07-25T07:08:00.826Z,100564.72
2022-07-25T07:10:28.185Z,100574.38
2022-07-25T07:13:11.881Z,100566.06
2022-07-25T07:15:43.738Z,100560.75
2022-07-25T07:18:10.236Z,100553.75
2022-07-25T07:20:37.098Z,100553.56
2022-07-25T07:23:03.654Z,100554.72
2022-07-25T07:25:30.767Z,100567.31
2022-07-25T07:27:57.627Z,100558.03
2022-07-25T07:30:30.606Z,100558.34
2022-07-25T07:33:11.133Z,100554.66
2022-07-25T07:35:37.767Z,100545.63
2022-07-25T07:38:04.585Z,100543.88
2022-07-25T07:40:32.111Z,100535.34
2022-07-25T07:43:02.502Z,100543.63
2022-07-25T07:45:29.931Z,100548.44
2022-07-25T07:47:57.130Z,100552.25
2022-07-25T07:50:25.685Z,100549.78
2022-07-25T07:52:53.613Z,100551.31
2022-07-25T07:55:46.954Z,100551.31
2022-07-25T07:58:16.219Z,100550.97
2022-07-25T08:00:45.318Z,100551.94
2022-07-25T08:03:12.505Z,100553.06
2022-07-25T08:05:44.408Z,100547.56
2022-07-25T08:08:14.193Z,100543.50
2022-07-25T08:10:46.614Z,100556.84
2022-07-25T08:13:15.859Z,100555.94
2022-07-25T08:15:44.702Z,100568.31
2022-07-25T08:18:17.547Z,100546.72
2022-07-25T08:20:48.767Z,100558.59
2022-07-25T08:23:15.911Z,100561.25
2022-07-25T08:25:43.736Z,100565.78
2022-07-25T08:28:11.482Z,100560.63
2022-07-25T08:30:39.249Z,100564.50
2022-07-25T08:33:09.660Z,100547.69
2022-07-25T08:35:36.661Z,100547.38
2022-07-25T08:38:04.676Z,100548.72
2022-07-25T08:40:32.663Z,100555.09
2022-07-25T08:42:59.809Z,100559.47
2022-07-25T08:45:28.501Z,100576.31
2022-07-25T08:47:56.344Z,100566.97
2022-07-25T08:50:25.650Z,100586.16
2022-07-25T08:53:04.860Z,100587.31
2022-07-25T08:55:39.840Z,100585.88
2022-07-25T08:58:06.444Z,100574.88
2022-07-25T09:00:33.255Z,100574.50
2022-07-25T09:03:02.956Z,100567.28
2022-07-25T09:05:31.619Z,100567.09
2022-07-25T09:08:06.357Z,100564.50
2022-07-25T09:10:33.183Z,100567.41
2022-07-25T09:13:02.382Z,100568.69
2022-07-25T09:15:35.378Z,100560.31
2022-07-25T09:18:05.959Z,100562.72
2022-07-25T09:20:56.485Z,100563.69
2022-07-25T09:23:29.173Z,100556.75
2022-07-25T09:26:08.642Z,100562.84
2022-07-25T09:28:42.335Z,100571.72
2022-07-25T09:31:09.783Z,100560.94
2022-07-25T09:33:46.651Z,100577.91
2022-07-25T09:36:13.815Z,100583.47
2022-07-25T09:38:40.287Z,100587.66
2022-07-25T09:41:07.677Z,100587.50
2022-07-25T09:43:42.227Z,100596.25
2022-07-25T09:46:10.021Z,100604.72
2022-07-25T09:48:39.682Z,100598.53
2022-07-25T09:51:07.476Z,100599.09
2022-07-25T09:53:34.118Z,100608.50
2022-07-25T09:56:00.804Z,100609.53
2022-07-25T09:58:28.440Z,100602.41
2022-07-25T10:01:00.832Z,100609.38
2022-07-25T10:03:53.880Z,100609.13
2022-07-25T10:06:38.983Z,100622.06
2022-07-25T10:09:12.695Z,100619.75
2022-07-25T10:11:40.368Z,100626.94
2022-07-25T10:14:14.310Z,100625.94
2022-07-25T10:16:48.864Z,100622.47
2022-07-25T10:19:15.616Z,100616.47
2022-07-25T10:21:42.327Z,100625.47
2022-07-25T10:24:10.837Z,100630.28
2022-07-25T10:26:39.973Z,100624.06
2022-07-25T10:29:13.940Z,100623.06
2022-07-25T10:31:51.066Z,100621.72
2022-07-25T10:34:29.270Z,100624.41
2022-07-25T10:36:57.160Z,100620.41
2022-07-25T10:39:24.448Z,100620.75
2022-07-25T10:41:59.161Z,100614.94
2022-07-25T10:44:30.703Z,100617.31
2022-07-25T10:47:08.648Z,100613.59
2022-07-25T10:49:37.617Z,100601.47
2022-07-25T10:52:04.954Z,100608.25
2022-07-25T10:54:36.912Z,100600.53
2022-07-25T10:57:15.301Z,100607.69
2022-07-25T10:59:42.058Z,100615.56
2022-07-25T11:02:16.342Z,100606.22
2022-07-25T11:04:44.319Z,100611.16
2022-07-25T11:07:12.537Z,100617.25
2022-07-25T11:09:40.462Z,100615.81
2022-07-25T11:12:08.089Z,100620.44
2022-07-25T11:14:43.546Z,100616.38
2022-07-25T11:17:22.514Z,100621.50
2022-07-25T11:20:05.168Z,100614.28
2022-07-25T11:22:32.599Z,100612.75
2022-07-25T11:25:00.087Z,100627.69
2022-07-25T11:27:29.109Z,100630.31
2022-07-25T11:30:16.670Z,100624.25
2022-07-25T11:32:46.966Z,100634.94
2022-07-25T11:35:15.066Z,100633.22
2022-07-25T11:37:44.066Z,100629.56
2022-07-25T11:40:10.961Z,100623.41
2022-07-25T11:42:42.959Z,100613.28
2022-07-25T11:45:19.977Z,100620.13
2022-07-25T11:48:03.151Z,100620.56
2022-07-25T11:50:31.621Z,100626.16
2022-07-25T11:53:03.964Z,100633.91
2022-07-25T11:55:33.435Z,100636.84
2022-07-25T11:58:02.350Z,100641.78
2022-07-25T12:00:30.285Z,100640.75
2022-07-25T12:03:14.115Z,100637.28
2022-07-25T12:05:44.154Z,100647.56
2022-07-25T12:08:13.628Z,100643.53
2022-07-25T12:10:41.568Z,100648.69
2022-07-25T12:13:10.103Z,100654.16
2022-07-25T12:15:39.241Z,100658.75
2022-07-25T12:18:08.964Z,100654.56
2022-07-25T12:20:39.386Z,100651.25
2022-07-25T12:23:08.960Z,100652.06
2022-07-25T12:25:41.861Z,100654.59
2022-07-25T12:28:10.247Z,100641.13
2022-07-25T12:30:37.726Z,100656.50
2022-07-25T12:33:06.733Z,100656.06
2022-07-25T12:35:34.005Z,100647.41
2022-07-25T12:38:00.499Z,100651.84
2022-07-25T12:40:28.079Z,100664.66
2022-07-25T12:42:54.876Z,100671.31
2022-07-25T12:45:21.683Z,100665.97
2022-07-25T12:47:48.548Z,100664.44
2022-07-25T12:50:16.775Z,100668.94
2022-07-25T12:52:44.502Z,100658.56
2022-07-25T12:55:13.968Z,100662.88
2022-07-25T12:57:40.563Z,100665.94
2022-07-25T13:00:10.957Z,100664.53
2022-07-25T13:02:37.893Z,100668.53
2022-07-25T13:05:05.524Z,100665.13
2022-07-25T13:07:33.218Z,100666.69
2022-07-25T13:10:00.844Z,100670.56
2022-07-25T13:12:28.081Z,100668.16
2022-07-25T13:14:54.849Z,100666.41
2022-07-25T13:17:26.892Z,100658.66
2022-07-25T13:19:55.877Z,100654.91
2022-07-25T13:22:22.475Z,100660.00
2022-07-25T13:24:49.022Z,100659.59
2022-07-25T13:27:18.150Z,100658.47
2022-07-25T13:29:44.891Z,100650.03
2022-07-25T13:32:14.375Z,100658.47
2022-07-25T13:34:41.012Z,100652.94
2022-07-25T13:37:07.446Z,100655.66
2022-07-25T13:39:36.133Z,100649.56
2022-07-25T13:42:03.123Z,100655.78
2022-07-25T13:44:29.736Z,100658.47
2022-07-25T13:46:59.602Z,100651.16
2022-07-25T13:49:26.595Z,100658.88
2022-07-25T13:51:53.124Z,100665.28
2022-07-25T13:54:19.775Z,100667.66
2022-07-25T13:56:47.624Z,100672.34
2022-07-25T13:59:20.534Z,100668.84
2022-07-25T14:01:47.933Z,100677.38
2022-07-25T14:04:14.660Z,100668.25
2022-07-25T14:06:41.654Z,100696.28
2022-07-25T14:09:08.753Z,100688.50
2022-07-25T14:11:35.557Z,100692.44
2022-07-25T14:14:02.027Z,100692.63
2022-07-25T14:16:29.311Z,100710.84
2022-07-25T14:18:56.153Z,100712.34
2022-07-25T14:21:23.000Z,100703.66
2022-07-25T14:23:49.607Z,100707.66
2022-07-25T14:26:16.203Z,100695.63
2022-07-25T14:28:43.578Z,100705.94
2022-07-25T14:31:11.462Z,100704.97
2022-07-25T14:33:40.011Z,100707.31
2022-07-25T14:36:08.504Z,100717.97
2022-07-25T14:38:35.205Z,100720.97
2022-07-25T14:41:05.669Z,100713.94
2022-07-25T14:43:35.685Z,100721.31
2022-07-25T14:46:02.169Z,100722.31
2022-07-25T14:48:29.231Z,100727.50
2022-07-25T14:50:58.520Z,100726.34
2022-07-25T14:53:24.937Z,100731.69
2022-07-25T14:55:51.372Z,100730.38
2022-07-25T14:58:17.833Z,100734.03
2022-07-25T15:00:45.920Z,100741.66
2022-07-25T15:03:12.936Z,100747.00
2022-07-25T15:05:41.485Z,100749.94
2022-07-25T15:08:08.331Z,100756.94
2022-07-25T15:10:34.809Z,100752.53
2022-07-25T15:13:29.323Z,100768.00
2022-07-25T15:15:49.129Z,100766.00
2022-07-25T15:18:15.564Z,100768.56
2022-07-25T15:20:42.235Z,100768.03
2022-07-25T15:23:08.755Z,100765.38
2022-07-25T15:26:00.582Z,100766.19
2022-07-25T15:28:22.311Z,100752.72
2022-07-25T15:30:49.399Z,100756.44
2022-07-25T15:33:17.250Z,100760.31
2022-07-25T15:35:45.560Z,100761.16
2022-07-25T15:38:13.350Z,100761.50
2022-07-25T15:40:39.900Z,100763.28
2022-07-25T15:43:06.388Z,100759.94
2022-07-25T15:45:33.809Z,100763.63
2022-07-25T15:48:01.467Z,100764.97
2022-07-25T15:50:27.896Z,100768.31
2022-07-25T15:52:54.537Z,100771.06
2022-07-25T15:55:21.204Z,100764.91
2022-07-25T15:57:47.675Z,100771.69
2022-07-25T16:00:14.666Z,100758.75
2022-07-25T16:02:41.121Z,100766.38
2022-07-25T16:05:07.872Z,100771.06
2022-07-25T16:07:35.280Z,100762.09
2022-07-25T16:10:01.792Z,100759.44
2022-07-25T16:12:28.947Z,100764.91
2022-07-25T16:17:44.419Z,100760.56
2022-07-25T16:20:11.908Z,100753.53
2022-07-25T16:23:06.054Z,100756.19
2022-07-25T16:25:32.566Z,100771.16
2022-07-25T16:28:00.005Z,100759.84
2022-07-25T16:30:27.769Z,100763.97
2022-07-25T16:32:54.406Z,100760.66
2022-07-25T16:35:21.304Z,100771.28
2022-07-25T16:37:48.071Z,100769.50
2022-07-25T16:40:14.669Z,100778.81
2022-07-25T16:42:41.566Z,100769.50
2022-07-25T16:45:08.683Z,100771.34
2022-07-25T16:47:35.230Z,100778.28
2022-07-25T16:50:02.077Z,100775.78
2022-07-25T16:52:28.789Z,100771.09
2022-07-25T16:54:55.220Z,100773.94
2022-07-25T16:57:24.753Z,100766.09
2022-07-25T16:59:53.232Z,100771.59
2022-07-25T17:02:20.144Z,100771.66
2022-07-25T17:04:46.716Z,100774.16
2022-07-25T17:07:13.369Z,100775.00
2022-07-25T17:09:40.803Z,100775.81
2022-07-25T17:12:10.603Z,100777.66
2022-07-25T17:14:37.279Z,100778.69
2022-07-25T17:17:07.406Z,100781.19
2022-07-25T17:19:38.628Z,100777.84
2022-07-25T17:22:06.573Z,100778.19
2022-07-25T17:24:33.235Z,100780.16
2022-07-25T17:27:02.564Z,100776.81
2022-07-25T17:29:29.660Z,100792.13
2022-07-25T17:31:56.198Z,100785.97
2022-07-25T17:34:23.370Z,100782.59
2022-07-25T17:39:41.267Z,100787.81
2022-07-25T17:42:07.961Z,100791.31
2022-07-25T18:18:48.242Z,100831.00
2022-07-25T18:21:14.717Z,100832.28
2022-07-25T18:23:41.128Z,100826.88
2022-07-25T18:57:31.855Z,100865.50
2022-07-25T19:00:02.744Z,100870.28
2022-07-25T19:02:30.010Z,100879.66
2022-07-25T19:15:10.140Z,100869.81
2022-07-25T19:17:37.668Z,100872.47
2022-07-25T19:20:04.897Z,100875.44
2022-07-25T19:22:31.622Z,100867.53
2022-07-25T19:24:58.139Z,100871.28
2022-07-25T19:27:25.811Z,100871.88
2022-07-25T19:29:55.654Z,100877.47
2022-07-25T19:32:22.531Z,100882.47
2022-07-25T19:34:49.270Z,100877.78
2022-07-25T19:37:15.796Z,100887.41
2022-07-25T19:39:42.413Z,100889.47
2022-07-25T19:42:09.842Z,100889.47
2022-07-25T19:44:37.096Z,100893.25
2022-07-25T19:49:55.019Z,100905.53
2022-07-25T20:35:09.639Z,100915.50
2022-07-25T20:37:36.068Z,100918.56
2022-07-25T20:40:04.187Z,100923.16
2022-07-25T20:42:31.204Z,100924.41
2022-07-25T20:44:57.919Z,100930.41
2022-07-25T20:47:24.985Z,100932.47
2022-07-25T20:49:51.480Z,100931.66
2022-07-25T20:52:18.195Z,100926.34
2022-07-25T20:54:44.792Z,100941.84
2022-07-25T20:57:11.687Z,100944.88
2022-07-25T20:59:38.335Z,100935.97
2022-07-25T21:02:04.962Z,100938.19
2022-07-25T21:04:31.454Z,100945.84
2022-07-25T21:06:57.866Z,100946.13
2022-07-25T21:09:25.238Z,100959.63
2022-07-25T21:11:53.964Z,100963.09
2022-07-25T21:14:20.445Z,100957.13
2022-07-25T21:16:47.273Z,100963.06
2022-07-25T21:19:13.820Z,100967.22
2022-07-25T21:21:40.372Z,100969.19
2022-07-25T21:24:07.090Z,100974.41
2022-07-25T21:26:33.625Z,100979.56
2022-07-25T21:29:00.089Z,100974.28
2022-07-25T21:31:26.663Z,100979.31
2022-07-25T21:33:53.140Z,100981.22
2022-07-25T21:36:19.594Z,100983.31
2022-07-25T21:38:46.208Z,100984.97
2022-07-25T21:41:12.767Z,100985.50
2022-07-25T21:43:40.371Z,100980.06
2022-07-25T21:46:06.945Z,100985.78
2022-07-25T21:48:51.903Z,100998.28
2022-07-25T21:51:23.346Z,100996.44
2022-07-25T21:53:51.845Z,100995.47
2022-07-25T21:56:18.902Z,100990.16
2022-07-25T21:58:45.361Z,100996.50
2022-07-25T22:01:12.290Z,100998.47
2022-07-25T22:03:40.422Z,101009.53
2022-07-25T22:06:08.166Z,100998.41
2022-07-25T22:08:34.629Z,101010.16
2022-07-25T22:11:01.117Z,101016.19
2022-07-25T22:13:43.242Z,101015.44
2022-07-25T22:16:09.971Z,101019.44
2022-07-25T22:18:36.461Z,101014.25
2022-07-25T22:21:03.400Z,101020.50
2022-07-25T22:23:29.798Z,101020.59
2022-07-25T22:25:56.320Z,101023.38
2022-07-25T22:28:22.796Z,101023.66
2022-07-25T22:30:49.349Z,101029.91
2022-07-25T22:33:15.869Z,101025.00
2022-07-25T22:35:42.761Z,101027.16
2022-07-25T22:38:09.241Z,101028.41
2022-07-25T22:40:36.441Z,101031.53
2022-07-25T22:43:03.159Z,101037.31
2022-07-25T22:45:29.950Z,101039.50
2022-07-25T22:47:56.745Z,101042.00
2022-07-25T22:50:23.405Z,101043.25
2022-07-25T22:52:49.935Z,101052.97
2022-07-25T22:55:16.551Z,101055.97
2022-07-25T22:57:43.139Z,101058.97
2022-07-25T23:00:11.861Z,101055.50
2022-07-25T23:02:39.897Z,101059.22
2022-07-25T23:05:07.378Z,101052.16
2022-07-25T23:07:34.739Z,101057.44
2022-07-25T23:10:01.885Z,101058.03
2022-07-25T23:12:28.337Z,101065.34
2022-07-25T23:14:54.841Z,101065.13
2022-07-25T23:17:21.399Z,101065.34
2022-07-25T23:19:50.568Z,101070.16
2022-07-25T23:22:18.732Z,101062.72
2022-07-25T23:24:45.387Z,101064.03
2022-07-25T23:27:12.397Z,101061.50
2022-07-25T23:29:39.213Z,101070.16
2022-07-25T23:32:07.029Z,101062.50
2022-07-25T23:34:34.677Z,101072.44
2022-07-25T23:37:02.223Z,101072.31
2022-07-25T23:39:29.391Z,101076.41
2022-07-25T23:41:55.811Z,101071.22
2022-07-25T23:44:22.642Z,101069.56
2022-07-25T23:46:50.671Z,101071.75
2022-07-25T23:49:17.725Z,101080.50
2022-07-25T23:51:44.310Z,101086.97
2022-07-25T23:54:10.762Z,101081.94
2022-07-25T23:56:37.249Z,101091.16
2022-07-25T23:59:04.261Z,101088.78
